地図

経路データ

SID SEASON NUMBER BASIN SUBBASIN NAME ISO_TIME NATURE LAT LON WMO_WIND WMO_PRES WMO_AGENCY TRACK_TYPE DIST2LAND LANDFALL IFLAG USA_AGENCY USA_ATCF_ID USA_LAT USA_LON USA_RECORD USA_STATUS USA_WIND USA_PRES USA_SSHS USA_R34_NE USA_R34_SE USA_R34_SW USA_R34_NW USA_R50_NE USA_R50_SE USA_R50_SW USA_R50_NW USA_R64_NE USA_R64_SE USA_R64_SW USA_R64_NW USA_POCI USA_ROCI USA_RMW USA_EYE TOKYO_LAT TOKYO_LON TOKYO_GRADE TOKYO_WIND TOKYO_PRES TOKYO_R50_DIR TOKYO_R50_LONG TOKYO_R50_SHORT TOKYO_R30_DIR TOKYO_R30_LONG TOKYO_R30_SHORT TOKYO_LAND CMA_LAT CMA_LON CMA_CAT CMA_WIND CMA_PRES HKO_LAT HKO_LON HKO_CAT HKO_WIND HKO_PRES NEWDELHI_LAT NEWDELHI_LON NEWDELHI_GRADE NEWDELHI_WIND NEWDELHI_PRES NEWDELHI_CI NEWDELHI_DP NEWDELHI_POCI REUNION_LAT REUNION_LON REUNION_TYPE REUNION_WIND REUNION_PRES REUNION_TNUM REUNION_CI REUNION_RMW REUNION_R34_NE REUNION_R34_SE REUNION_R34_SW REUNION_R34_NW REUNION_R50_NE REUNION_R50_SE REUNION_R50_SW REUNION_R50_NW REUNION_R64_NE REUNION_R64_SE REUNION_R64_SW REUNION_R64_NW BOM_LAT BOM_LON BOM_TYPE BOM_WIND BOM_PRES BOM_TNUM BOM_CI BOM_RMW BOM_R34_NE BOM_R34_SE BOM_R34_SW BOM_R34_NW BOM_R50_NE BOM_R50_SE BOM_R50_SW BOM_R50_NW BOM_R64_NE BOM_R64_SE BOM_R64_SW BOM_R64_NW BOM_ROCI BOM_POCI BOM_EYE BOM_POS_METHOD BOM_PRES_METHOD NADI_LAT NADI_LON NADI_CAT NADI_WIND NADI_PRES WELLINGTON_LAT WELLINGTON_LON WELLINGTON_WIND WELLINGTON_PRES DS824_LAT DS824_LON DS824_STAGE DS824_WIND DS824_PRES TD9636_LAT TD9636_LON TD9636_STAGE TD9636_WIND TD9636_PRES TD9635_LAT TD9635_LON TD9635_WIND TD9635_PRES TD9635_ROCI NEUMANN_LAT NEUMANN_LON NEUMANN_CLASS NEUMANN_WIND NEUMANN_PRES MLC_LAT MLC_LON MLC_CLASS MLC_WIND MLC_PRES USA_GUST BOM_GUST BOM_GUST_PER REUNION_GUST REUNION_GUST_PER USA_SEAHGT USA_SEARAD_NE USA_SEARAD_SE USA_SEARAD_SW USA_SEARAD_NW STORM_SPEED STORM_DIR
1898238N25130 1898 32 WP MM NOT_NAMED 1898-08-25 16:00:00 NR 24.5000 130.000 main 729 718 __________O___ -1 24.5000 130.000 7 4 307
1898238N25130 1898 32 WP MM NOT_NAMED 1898-08-25 18:00:00 NR 24.5883 129.871 main 718 708 __________P___ -1 24.5883 129.871 7 5 309
1898238N25130 1898 32 WP MM NOT_NAMED 1898-08-25 21:00:00 NR 24.7375 129.681 main 710 689 __________P___ -1 24.7375 129.681 7 5 316
1898238N25130 1898 32 WP MM NOT_NAMED 1898-08-26 00:00:00 NR 24.9302 129.504 main 691 659 __________P___ -1 24.9302 129.504 7 5 326
1898238N25130 1898 32 WP MM NOT_NAMED 1898-08-26 03:00:00 NR 25.1925 129.347 main 661 650 __________P___ -1 25.1925 129.347 7 6 334
1898238N25130 1898 32 WP MM NOT_NAMED 1898-08-26 04:00:00 NR 25.3000 129.300 main 650 631 __________O___ -1 25.3000 129.300 3 8 342
1898238N25130 1898 32 WP MM NOT_NAMED 1898-08-26 06:00:00 NR 25.5472 129.214 main 631 579 __________P___ -1 25.5472 129.214 3 8 344
1898238N25130 1898 32 WP MM NOT_NAMED 1898-08-26 09:00:00 NR 25.9753 129.087 main 579 539 __________P___ -1 25.9753 129.087 3 9 344
1898238N25130 1898 32 WP MM NOT_NAMED 1898-08-26 12:00:00 NR 26.4308 128.927 main 542 497 __________P___ -1 26.4308 128.927 3 10 339
1898238N25130 1898 32 WP MM NOT_NAMED 1898-08-26 15:00:00 NR 26.8670 128.698 main 497 490 __________P___ -1 26.8670 128.698 3 10 333
1898238N25130 1898 32 WP MM NOT_NAMED 1898-08-26 16:00:00 NR 27.0000 128.600 main 490 468 __________O___ -1 27.0000 128.600 4 10 322
1898238N25130 1898 32 WP MM NOT_NAMED 1898-08-26 18:00:00 NR 27.2573 128.353 main 468 454 __________P___ -1 27.2573 128.353 4 10 314
1898238N25130 1898 32 WP MM NOT_NAMED 1898-08-26 21:00:00 NR 27.6061 127.907 main 459 449 __________P___ -1 27.6061 127.907 4 11 307
1898238N25130 1898 32 WP MM NOT_NAMED 1898-08-27 00:00:00 NR 27.8850 127.401 main 456 456 __________P___ -1 27.8850 127.401 4 10 297
1898238N25130 1898 32 WP MM NOT_NAMED 1898-08-27 03:00:00 NR 28.0661 126.874 main 470 474 __________P___ -1 28.0661 126.874 4 10 289
1898238N25130 1898 32 WP MM NOT_NAMED 1898-08-27 04:00:00 NR 28.1000 126.700 main 474 446 __________O___ -1 28.1000 126.700 4 9 277
1898238N25130 1898 32 WP MM NOT_NAMED 1898-08-27 06:00:00 NR 28.1189 126.371 main 446 399 __________P___ -1 28.1189 126.371 4 9 266
1898238N25130 1898 32 WP MM NOT_NAMED 1898-08-27 09:00:00 NR 28.0527 125.879 main 399 362 __________P___ -1 28.0527 125.879 4 9 257
1898238N25130 1898 32 WP MM NOT_NAMED 1898-08-27 12:00:00 NR 27.9147 125.400 main 362 323 __________P___ -1 27.9147 125.400 4 9 250
1898238N25130 1898 32 WP MM NOT_NAMED 1898-08-27 15:00:00 NR 27.7518 124.944 main 323 320 __________P___ -1 27.7518 124.944 4 9 248
1898238N25130 1898 32 WP MM NOT_NAMED 1898-08-27 16:00:00 NR 27.7000 124.800 main 320 295 __________O___ -1 27.7000 124.800 4 8 253
1898238N25130 1898 32 WP MM NOT_NAMED 1898-08-27 18:00:00 NR 27.6431 124.538 main 295 266 __________P___ -1 27.6431 124.538 4 7 256
1898238N25130 1898 32 WP MM NOT_NAMED 1898-08-27 21:00:00 NR 27.5584 124.171 main 266 233 __________P___ -1 27.5584 124.171 4 7 254
1898238N25130 1898 32 WP MM NOT_NAMED 1898-08-28 00:00:00 NR 27.4637 123.811 main 233 209 __________P___ -1 27.4637 123.811 4 7 252
1898238N25130 1898 32 WP MM NOT_NAMED 1898-08-28 03:00:00 NR 27.3463 123.434 main 209 200 __________P___ -1 27.3463 123.434 4 7 250
1898238N25130 1898 32 WP MM NOT_NAMED 1898-08-28 04:00:00 NR 27.3000 123.300 main 200 184 __________O___ -1 27.3000 123.300 4 8 249
1898238N25130 1898 32 WP MM NOT_NAMED 1898-08-28 06:00:00 NR 27.1924 122.993 main 184 166 __________P___ -1 27.1924 122.993 4 9 247
1898238N25130 1898 32 WP MM NOT_NAMED 1898-08-28 09:00:00 NR 27.0057 122.507 main 170 150 __________P___ -1 27.0057 122.507 4 10 246
1898238N25130 1898 32 WP MM NOT_NAMED 1898-08-28 12:00:00 NR 26.7968 122.015 main 150 119 __________P___ -1 26.7968 122.015 4 10 243
1898238N25130 1898 32 WP MM NOT_NAMED 1898-08-28 15:00:00 NR 26.5751 121.546 main 119 118 __________P___ -1 26.5751 121.546 4 9 242
1898238N25130 1898 32 WP MM NOT_NAMED 1898-08-28 16:00:00 NR 26.5000 121.400 main 118 101 __________O___ -1 26.5000 121.400 4 9 241
1898238N25130 1898 32 WP MM NOT_NAMED 1898-08-28 18:00:00 NR 26.3607 121.117 main 101 74 __________P___ -1 26.3607 121.117 4 8 240
1898238N25130 1898 32 WP MM NOT_NAMED 1898-08-28 21:00:00 NR 26.1459 120.724 main 81 68 __________P___ -1 26.1459 120.724 4 8 237
1898238N25130 1898 32 WP MM NOT_NAMED 1898-08-29 00:00:00 NR 25.9211 120.377 main 69 45 __________P___ -1 25.9211 120.377 4 7 231
1898238N25130 1898 32 WP MM NOT_NAMED 1898-08-29 03:00:00 NR 25.6829 120.084 main 45 37 __________P___ -1 25.6829 120.084 4 7 227
1898238N25130 1898 32 WP MM NOT_NAMED 1898-08-29 04:00:00 NR 25.6000 120.000 main 37 10 __________O___ -1 25.6000 120.000 4 7 223
1898238N25130 1898 32 WP MM NOT_NAMED 1898-08-29 06:00:00 NR 25.4146 119.807 main 10 0 __________P___ -1 25.4146 119.807 4 7 219
1898238N25130 1898 32 WP MM NOT_NAMED 1898-08-29 09:00:00 NR 25.1239 119.567 main 22 22 __________P___ -1 25.1239 119.567 4 7 212
1898238N25130 1898 32 WP MM NOT_NAMED 1898-08-29 12:00:00 NR 24.8374 119.414 main 39 39 __________P___ -1 24.8374 119.414 4 6 197
1898238N25130 1898 32 WP MM NOT_NAMED 1898-08-29 15:00:00 NR 24.5771 119.380 main 59 59 __________P___ -1 24.5771 119.380 4 5 184
1898238N25130 1898 32 WP MM NOT_NAMED 1898-08-29 16:00:00 NR 24.5000 119.400 main 67 67 __________O___ -1 24.5000 119.400 4 5 159
1898238N25130 1898 32 WP MM NOT_NAMED 1898-08-29 18:00:00 NR 24.3320 119.483 main 87 61 __________P___ -1 24.3320 119.483 4 6 143
1898238N25130 1898 32 WP MM NOT_NAMED 1898-08-29 21:00:00 NR 24.1108 119.720 main 61 20 __________P___ -1 24.1108 119.720 4 6 126
1898238N25130 1898 32 WP MM NOT_NAMED 1898-08-30 00:00:00 NR 23.9542 120.057 main 20 0 __________P___ -1 23.9542 120.057 4 7 108
1898238N25130 1898 32 WP MM NOT_NAMED 1898-08-30 03:00:00 NR 23.8935 120.459 main 0 0 __________P___ -1 23.8935 120.459 4 7 96
1898238N25130 1898 32 WP MM NOT_NAMED 1898-08-30 04:00:00 NR 23.9000 120.600 main 0 0 __________O___ -1 23.9000 120.600 4 8 80
1898238N25130 1898 32 WP MM NOT_NAMED 1898-08-30 06:00:00 NR 23.9619 120.868 main 0 0 __________P___ -1 23.9619 120.868 4 8 69
1898238N25130 1898 32 WP MM NOT_NAMED 1898-08-30 09:00:00 NR 24.1492 121.307 main 0 0 __________P___ -1 24.1492 121.307 4 9 62
1898238N25130 1898 32 WP MM NOT_NAMED 1898-08-30 12:00:00 NR 24.4109 121.774 main 0 0 __________P___ -1 24.4109 121.774 4 10 57
1898238N25130 1898 32 WP MM NOT_NAMED 1898-08-30 15:00:00 NR 24.7032 122.246 main 37 37 __________P___ -1 24.7032 122.246 4 10 56
1898238N25130 1898 32 WP MM NOT_NAMED 1898-08-30 16:00:00 NR 24.8000 122.400 main 46 46 __________O___ -1 24.8000 122.400 4 10 58
1898238N25130 1898 32 WP MM NOT_NAMED 1898-08-30 18:00:00 NR 24.9555 122.695 main 70 70 __________P___ -1 24.9555 122.695 4 9 59
1898238N25130 1898 32 WP MM NOT_NAMED 1898-08-30 21:00:00 NR 25.1951 123.130 main 112 122 __________P___ -1 25.1951 123.130 4 9 58
1898238N25130 1898 32 WP MM NOT_NAMED 1898-08-31 00:00:00 NR 25.4451 123.555 main 166 170 __________P___ -1 25.4451 123.555 4 9 56
1898238N25130 1898 32 WP MM NOT_NAMED 1898-08-31 03:00:00 NR 25.7086 123.967 main 215 215 __________P___ -1 25.7086 123.967 4 9 54
1898238N25130 1898 32 WP MM NOT_NAMED 1898-08-31 04:00:00 NR 25.8000 124.100 main 228 228 __________O___ -1 25.8000 124.100 4 9 52
1898238N25130 1898 32 WP MM NOT_NAMED 1898-08-31 06:00:00 NR 25.9830 124.362 main 265 265 __________P___ -1 25.9830 124.362 4 9 51
1898238N25130 1898 32 WP MM NOT_NAMED 1898-08-31 09:00:00 NR 26.2702 124.742 main 306 315 __________P___ -1 26.2702 124.742 4 9 49
1898238N25130 1898 32 WP MM NOT_NAMED 1898-08-31 12:00:00 NR 26.5728 125.112 main 357 357 __________P___ -1 26.5728 125.112 4 9 47
1898238N25130 1898 32 WP MM NOT_NAMED 1898-08-31 15:00:00 NR 26.8907 125.478 main 408 408 __________P___ -1 26.8907 125.478 4 9 46
1898238N25130 1898 32 WP MM NOT_NAMED 1898-08-31 16:00:00 NR 27.0000 125.600 main 419 419 __________O___ -1 27.0000 125.600 4 9 45
1898238N25130 1898 32 WP MM NOT_NAMED 1898-08-31 18:00:00 NR 27.2235 125.846 main 430 436 __________P___ -1 27.2235 125.846 4 10 44
1898238N25130 1898 32 WP MM NOT_NAMED 1898-08-31 21:00:00 NR 27.5688 126.218 main 447 447 __________P___ -1 27.5688 126.218 4 10 43
1898238N25130 1898 32 WP MM NOT_NAMED 1898-09-01 00:00:00 NR 27.9224 126.594 main 471 447 __________P___ -1 27.9224 126.594 4 10 43
1898238N25130 1898 32 WP MM NOT_NAMED 1898-09-01 03:00:00 NR 28.2804 126.973 main 447 432 __________P___ -1 28.2804 126.973 4 10 43
1898238N25130 1898 32 WP MM NOT_NAMED 1898-09-01 04:00:00 NR 28.4000 127.100 main 432 __________O___ -1 28.4000 127.100 4 10 43

デジタル台風データ・検索

IBTrACS Databaseについて

本データベースは、米国NOAAが公開する1842年以降の世界の熱帯低気圧のベストトラックデータアーカイブInternational Best Track Archive for Climate Stewardship (IBTrACS)を、ウェブで閲覧しやすい形式に変換したものです。

最終更新日:2021-10-21